Time;durP1;ratioP1;P1;durP2;ratioP2;P2;SDS_P1;SDS_P2;PMS_P1;PMS_P2;Temp;Humidity;BMP_temperature;BMP_pressure;BME280_temperature;BME280_humidity;BME280_pressure;Samples;Min_cycle;Max_cycle;Signal;HPM_P1;HPM_P2
2022/11/03 00:01:18;;;;;;;2.53;0.50;;;20.60;85.50;;;;;;5069749;28;20225;-76
2022/11/03 00:03:49;;;;;;;3.40;0.65;;;20.70;85.50;;;;;;5063435;28;20300;-77
2022/11/03 00:06:22;;;;;;;2.17;0.60;;;20.70;85.00;;;;;;5056708;28;20224;-76
2022/11/03 00:08:53;;;;;;;1.27;0.90;;;20.90;84.00;;;;;;5049848;28;20201;-74
2022/11/03 00:11:23;;;;;;;2.55;0.82;;;21.00;82.70;;;;;;5053092;28;20663;-74
2022/11/03 00:13:54;;;;;;;1.20;0.60;;;21.20;84.00;;;;;;5054160;28;20193;-74
2022/11/03 00:16:25;;;;;;;2.17;0.75;;;21.30;82.30;;;;;;5064766;28;20250;-74
2022/11/03 00:18:56;;;;;;;1.15;0.70;;;21.40;80.50;;;;;;5053982;28;20197;-75
2022/11/03 00:21:31;;;;;;;1.23;0.43;;;21.60;80.00;;;;;;5056764;28;20200;-74
2022/11/03 00:24:03;;;;;;;2.97;0.60;;;21.50;79.20;;;;;;5054563;28;20654;-75
2022/11/03 00:26:35;;;;;;;0.77;0.60;;;21.40;78.00;;;;;;5052226;28;20231;-75
2022/11/03 00:29:10;;;;;;;0.93;0.50;;;21.10;78.50;;;;;;5053619;28;20201;-75
2022/11/03 00:31:43;;;;;;;2.28;0.68;;;21.00;76.80;;;;;;5057066;28;20234;-75
2022/11/03 00:34:14;;;;;;;1.20;0.50;;;21.20;79.30;;;;;;5052040;28;20196;-75
2022/11/03 00:36:48;;;;;;;1.17;0.32;;;21.60;78.80;;;;;;5053291;28;20284;-75
2022/11/03 00:39:18;;;;;;;1.30;0.47;;;21.70;75.40;;;;;;5051385;28;20201;-75
2022/11/03 00:41:49;;;;;;;1.00;0.55;;;21.80;76.00;;;;;;5052566;28;20201;-75
2022/11/03 00:44:20;;;;;;;1.25;0.50;;;22.00;75.60;;;;;;5053035;28;20542;-75
2022/11/03 00:46:52;;;;;;;1.20;0.55;;;22.10;71.90;;;;;;5051702;28;20220;-75
2022/11/03 00:49:22;;;;;;;1.98;0.90;;;22.00;73.90;;;;;;5054068;28;20245;-75
2022/11/03 00:51:56;;;;;;;0.60;0.40;;;21.90;72.50;;;;;;5058155;28;20204;-75
2022/11/03 00:54:27;;;;;;;1.08;0.40;;;21.80;70.90;;;;;;5066293;28;20193;-76
2022/11/03 00:56:58;;;;;;;2.80;0.40;;;21.80;72.40;;;;;;5052039;28;20215;-75
2022/11/03 00:59:29;;;;;;;0.63;0.40;;;21.80;68.40;;;;;;5058129;28;20212;-76
2022/11/03 01:01:59;;;;;;;1.00;0.40;;;21.60;68.80;;;;;;5061942;28;20203;-76
2022/11/03 01:07:29;;;;;;;1.80;0.30;;;21.60;67.90;;;;;;5053947;28;20216;-76
2022/11/03 01:10:00;;;;;;;2.85;0.35;;;21.60;67.40;;;;;;5065042;28;20307;-76
2022/11/03 01:12:30;;;;;;;1.40;0.40;;;21.50;69.00;;;;;;5075602;28;20203;-75
2022/11/03 01:15:01;;;;;;;0.95;0.40;;;21.40;68.10;;;;;;5058284;28;20203;-76
2022/11/03 01:17:32;;;;;;;0.90;0.40;;;21.40;67.70;;;;;;5063738;28;20216;-77
2022/11/03 01:20:03;;;;;;;1.35;0.38;;;21.20;67.60;;;;;;5066954;28;20200;-77
2022/11/03 01:22:35;;;;;;;1.02;0.30;;;21.10;64.70;;;;;;5070083;28;20222;-77
2022/11/03 01:25:06;;;;;;;1.33;0.52;;;20.80;66.70;;;;;;5057270;28;20202;-77
2022/11/03 01:27:37;;;;;;;0.65;0.22;;;20.80;68.80;;;;;;5052321;28;20228;-77
2022/11/03 01:30:09;;;;;;;0.50;0.40;;;20.70;69.70;;;;;;5059019;28;20196;-76
2022/11/03 01:32:40;;;;;;;1.35;0.40;;;20.60;70.70;;;;;;5053037;28;20207;-76
2022/11/03 01:35:11;;;;;;;1.10;0.40;;;20.70;68.90;;;;;;5055217;28;20215;-76
2022/11/03 01:37:44;;;;;;;0.63;0.22;;;20.70;68.00;;;;;;5051493;28;20287;-76
2022/11/03 01:40:15;;;;;;;2.13;0.20;;;20.70;66.60;;;;;;5050599;28;20690;-76
2022/11/03 01:42:46;;;;;;;0.30;0.20;;;20.70;65.40;;;;;;5051998;28;20590;-76
2022/11/03 01:45:17;;;;;;;1.40;0.65;;;20.60;64.30;;;;;;5064266;28;20201;-77
2022/11/03 01:47:50;;;;;;;1.55;0.20;;;20.60;65.60;;;;;;5060696;28;20315;-76
2022/11/03 01:50:22;;;;;;;0.60;0.20;;;20.60;65.50;;;;;;5054118;28;20204;-76
2022/11/03 01:52:58;;;;;;;0.88;0.40;;;20.60;64.70;;;;;;5054458;28;20200;-77
2022/11/03 01:55:32;;;;;;;1.23;0.30;;;20.50;67.10;;;;;;5050727;28;20288;-77
2022/11/03 01:58:06;;;;;;;0.52;0.30;;;20.40;66.80;;;;;;5049884;28;20230;-76
2022/11/03 02:00:37;;;;;;;1.88;0.45;;;20.40;65.30;;;;;;5055846;28;20197;-76
2022/11/03 02:03:09;;;;;;;1.95;0.40;;;20.30;66.10;;;;;;5057584;28;20192;-76
2022/11/03 02:05:41;;;;;;;1.88;0.30;;;20.20;70.10;;;;;;5068915;28;20204;-76
2022/11/03 02:08:17;;;;;;;0.30;0.30;;;20.20;71.30;;;;;;5067038;28;20253;-76
2022/11/03 02:10:50;;;;;;;1.60;0.40;;;20.30;71.00;;;;;;5071442;28;20229;-76
2022/11/03 02:13:23;;;;;;;1.75;0.38;;;20.40;71.90;;;;;;5062491;28;20227;-76
2022/11/03 02:15:56;;;;;;;1.27;0.50;;;20.40;73.80;;;;;;5050505;28;20228;-76
2022/11/03 02:18:33;;;;;;;0.68;0.38;;;20.40;70.80;;;;;;5050419;28;20564;-76
2022/11/03 02:21:11;;;;;;;0.57;0.32;;;20.50;67.40;;;;;;5053012;28;20346;-76
2022/11/03 02:23:50;;;;;;;1.05;0.70;;;20.50;68.40;;;;;;5065971;28;20329;-76
2022/11/03 02:26:23;;;;;;;0.60;0.60;;;20.50;70.80;;;;;;5069896;28;20198;-76
2022/11/03 02:28:54;;;;;;;1.67;0.60;;;20.50;71.70;;;;;;5055133;28;20196;-76
2022/11/03 02:31:32;;;;;;;1.67;0.25;;;20.60;71.60;;;;;;5059355;28;20307;-75
2022/11/03 02:34:09;;;;;;;0.98;0.30;;;20.60;71.70;;;;;;5055938;28;20228;-76
2022/11/03 02:36:44;;;;;;;1.13;0.20;;;20.60;71.10;;;;;;5061599;28;20414;-76
2022/11/03 02:39:19;;;;;;;0.40;0.25;;;20.60;70.60;;;;;;5069287;28;20616;-76
2022/11/03 02:41:54;;;;;;;0.57;0.20;;;20.50;72.20;;;;;;5065544;28;20233;-76
2022/11/03 02:44:25;;;;;;;0.68;0.40;;;20.50;71.40;;;;;;5059942;28;20200;-76
2022/11/03 02:46:59;;;;;;;1.02;0.30;;;20.60;72.50;;;;;;5054346;28;20270;-76
2022/11/03 02:49:31;;;;;;;1.65;0.40;;;20.50;72.60;;;;;;5055551;28;20687;-75
2022/11/03 02:52:03;;;;;;;0.20;0.20;;;20.60;73.60;;;;;;5069517;28;20211;-76
2022/11/03 02:54:39;;;;;;;1.00;0.22;;;20.60;74.80;;;;;;5055507;28;20569;-76
2022/11/03 02:57:17;;;;;;;0.57;0.30;;;20.60;72.60;;;;;;5048608;28;20200;-76
2022/11/03 02:59:52;;;;;;;1.00;0.30;;;20.60;72.50;;;;;;5056353;28;20659;-75
2022/11/03 03:02:31;;;;;;;0.40;0.20;;;20.60;75.50;;;;;;5067254;28;20221;-76
2022/11/03 03:05:10;;;;;;;0.82;0.30;;;20.60;77.80;;;;;;5050319;28;20299;-75
2022/11/03 03:07:43;;;;;;;0.40;0.40;;;20.80;80.60;;;;;;5050060;28;20690;-75
2022/11/03 03:10:18;;;;;;;2.70;0.40;;;20.90;78.80;;;;;;5052316;28;20195;-75
2022/11/03 03:12:54;;;;;;;1.00;0.40;;;20.80;76.90;;;;;;5055060;28;20196;-76
2022/11/03 03:15:29;;;;;;;0.95;0.30;;;20.80;75.80;;;;;;5059459;28;20285;-75
2022/11/03 03:18:06;;;;;;;0.73;0.30;;;20.90;75.80;;;;;;5048556;28;20223;-75
2022/11/03 03:20:43;;;;;;;0.68;0.20;;;20.90;77.70;;;;;;5051883;28;20206;-75
2022/11/03 03:23:19;;;;;;;0.73;0.40;;;21.30;79.80;;;;;;5050076;28;20192;-75
2022/11/03 03:25:56;;;;;;;0.80;0.25;;;21.80;80.20;;;;;;5051897;28;20194;-75
2022/11/03 03:28:34;;;;;;;1.17;0.30;;;22.40;80.90;;;;;;5065485;28;20223;-75
2022/11/03 03:31:10;;;;;;;1.00;0.30;;;22.60;76.70;;;;;;5051091;28;20199;-74
2022/11/03 03:33:42;;;;;;;0.63;0.30;;;22.30;73.20;;;;;;5057357;28;20191;-75
2022/11/03 03:36:16;;;;;;;0.73;0.40;;;22.50;77.00;;;;;;5052247;28;20205;-75
2022/11/03 03:38:50;;;;;;;2.05;0.50;;;22.80;75.20;;;;;;5049809;28;20200;-76
2022/11/03 03:41:22;;;;;;;2.38;1.23;;;22.90;73.00;;;;;;5062220;28;20686;-76
2022/11/03 03:43:59;;;;;;;1.30;0.50;;;22.80;73.60;;;;;;5066212;28;20211;-76
2022/11/03 03:46:35;;;;;;;0.70;0.30;;;23.10;70.10;;;;;;5060305;28;20206;-76
2022/11/03 03:49:07;;;;;;;1.20;0.50;;;23.60;69.80;;;;;;5063977;28;20250;-75
2022/11/03 03:51:39;;;;;;;1.15;0.30;;;23.70;68.50;;;;;;5054596;28;20200;-76
2022/11/03 03:54:10;;;;;;;1.20;0.40;;;23.50;68.30;;;;;;5054263;28;20204;-76
2022/11/03 03:56:47;;;;;;;0.68;0.40;;;23.20;71.00;;;;;;5051901;28;20205;-75
2022/11/03 03:59:21;;;;;;;0.95;0.40;;;23.20;72.60;;;;;;5061297;28;20602;-76
2022/11/03 04:01:51;;;;;;;1.92;0.47;;;23.10;73.50;;;;;;5059046;28;20196;-75
2022/11/03 04:04:22;;;;;;;0.47;0.25;;;23.10;72.90;;;;;;5068690;28;20309;-76
2022/11/03 04:07:45;;;;;;;0.80;0.30;;;23.30;72.00;;;;;;5061995;28;20528;-76
2022/11/03 04:09:48;;;;;;;3.13;0.40;;;23.50;72.60;;;;;;5067776;28;20215;-76
2022/11/03 04:23:34;;;;;;;1.30;0.40;;;24.20;67.10;;;;;;5059892;28;20265;-76
2022/11/03 04:26:09;;;;;;;0.30;0.20;;;23.70;67.10;;;;;;5077221;28;20306;-77
2022/11/03 04:28:44;;;;;;;1.80;0.43;;;23.60;67.80;;;;;;5063262;28;20260;-77
2022/11/03 04:31:18;;;;;;;0.55;0.25;;;23.40;68.00;;;;;;5072093;28;20197;-76
2022/11/03 04:33:52;;;;;;;1.05;0.30;;;23.20;73.10;;;;;;5058964;28;20198;-76
2022/11/03 04:36:25;;;;;;;0.40;0.30;;;23.50;70.80;;;;;;5063045;28;20263;-76
2022/11/03 04:39:01;;;;;;;0.38;0.20;;;24.00;70.00;;;;;;5072283;28;20219;-76
2022/11/03 04:41:37;;;;;;;1.05;0.20;;;24.20;67.80;;;;;;5065189;28;20219;-77
2022/11/03 04:44:13;;;;;;;1.25;0.40;;;24.50;65.30;;;;;;5076982;28;20200;-76
2022/11/03 04:46:47;;;;;;;0.93;0.40;;;24.70;63.40;;;;;;5063521;28;20219;-75
2022/11/03 04:49:25;;;;;;;0.43;0.20;;;25.10;62.60;;;;;;5076713;28;20705;-76
2022/11/03 04:51:55;;;;;;;0.50;0.45;;;25.20;61.80;;;;;;5073066;28;20559;-76
2022/11/03 04:54:27;;;;;;;0.68;0.40;;;25.20;62.00;;;;;;5076863;28;20199;-76
2022/11/03 04:57:04;;;;;;;2.20;0.30;;;25.70;61.90;;;;;;5071967;28;20215;-76
2022/11/03 04:59:34;;;;;;;0.85;0.20;;;25.80;61.10;;;;;;5072149;28;20220;-76
2022/11/03 05:02:14;;;;;;;0.85;0.30;;;25.50;61.00;;;;;;5059673;28;20698;-76
2022/11/03 05:04:45;;;;;;;1.52;0.30;;;25.90;60.90;;;;;;5063148;28;20212;-76
2022/11/03 05:07:25;;;;;;;1.38;0.22;;;26.00;59.60;;;;;;5062472;28;20203;-76
2022/11/03 05:09:56;;;;;;;1.10;0.30;;;26.20;59.30;;;;;;5061253;28;20216;-76
2022/11/03 05:12:28;;;;;;;0.70;0.40;;;26.10;59.00;;;;;;5052551;28;20201;-76
2022/11/03 05:14:59;;;;;;;0.85;0.30;;;26.30;59.10;;;;;;5053287;28;20196;-76
2022/11/03 05:17:32;;;;;;;2.20;0.43;;;26.30;59.70;;;;;;5052396;28;20654;-75
2022/11/03 05:20:05;;;;;;;1.23;0.60;;;26.70;60.20;;;;;;5061816;28;20696;-76
2022/11/03 05:22:39;;;;;;;2.40;0.50;;;27.20;60.00;;;;;;5051144;28;20678;-75
2022/11/03 05:25:36;;;;;;;3.90;0.32;;;27.40;58.40;;;;;;5052179;28;20287;-75
2022/11/03 05:28:18;;;;;;;0.98;0.30;;;27.00;57.90;;;;;;5053367;28;20694;-76
2022/11/03 05:30:49;;;;;;;1.45;0.30;;;27.30;57.60;;;;;;5062339;28;20199;-75
2022/11/03 05:33:31;;;;;;;0.90;0.40;;;26.90;58.00;;;;;;5067913;28;20222;-77
2022/11/03 05:36:06;;;;;;;2.97;0.55;;;27.10;60.20;;;;;;5069700;28;20295;-77
2022/11/03 05:38:37;;;;;;;1.02;0.45;;;26.70;64.30;;;;;;5054239;28;20212;-76
2022/11/03 05:41:18;;;;;;;2.40;0.65;;;25.80;67.60;;;;;;5076634;28;20199;-76
2022/11/03 05:44:00;;;;;;;2.63;0.65;;;25.10;72.20;;;;;;5061942;28;20197;-76
2022/11/03 05:46:35;;;;;;;1.67;0.65;;;24.50;78.00;;;;;;5057251;28;20307;-76
2022/11/03 05:49:12;;;;;;;1.77;0.80;;;24.00;81.30;;;;;;5066194;28;20223;-76
2022/11/03 05:51:46;;;;;;;2.63;0.70;;;23.70;86.30;;;;;;5052435;28;20253;-76
2022/11/03 05:54:25;;;;;;;2.80;0.70;;;23.40;90.00;;;;;;5058448;28;20272;-76
2022/11/03 05:56:57;;;;;;;3.70;0.90;;;22.80;94.50;;;;;;5064895;28;20188;-76
2022/11/03 05:59:30;;;;;;;2.47;0.80;;;22.50;97.50;;;;;;5071976;28;20282;-76
2022/11/03 06:02:03;;;;;;;2.05;0.60;;;22.20;99.90;;;;;;5052630;28;20200;-75
2022/11/03 06:04:40;;;;;;;2.60;0.70;;;22.00;99.90;;;;;;5055539;28;20280;-76
2022/11/03 06:07:21;;;;;;;1.17;0.43;;;21.90;99.90;;;;;;5054871;28;20203;-76
2022/11/03 06:09:54;;;;;;;3.67;1.00;;;21.90;99.90;;;;;;5060436;28;20590;-75
2022/11/03 06:12:26;;;;;;;2.55;0.70;;;22.30;99.90;;;;;;5051833;28;20192;-77
2022/11/03 06:14:57;;;;;;;5.10;0.77;;;23.20;99.90;;;;;;5059850;28;20222;-76
2022/11/03 06:17:30;;;;;;;3.97;0.63;;;24.50;99.50;;;;;;5053714;28;22263;-76
2022/11/03 06:20:03;;;;;;;3.38;0.80;;;25.40;95.90;;;;;;5050692;28;20655;-76
2022/11/03 06:22:39;;;;;;;2.33;0.68;;;26.00;92.40;;;;;;5071048;28;20204;-76
2022/11/03 06:25:21;;;;;;;2.40;0.75;;;26.00;90.50;;;;;;5062506;28;20200;-76
2022/11/03 06:27:53;;;;;;;2.92;0.80;;;25.80;90.60;;;;;;5061671;28;20203;-76
2022/11/03 06:30:27;;;;;;;3.80;1.08;;;25.30;91.40;;;;;;5062411;28;20200;-77
2022/11/03 06:33:03;;;;;;;3.42;0.90;;;24.70;93.80;;;;;;5066946;28;20208;-76
2022/11/03 06:35:38;;;;;;;6.03;1.20;;;24.10;96.10;;;;;;5052876;28;20203;-77
2022/11/03 06:38:17;;;;;;;4.90;0.93;;;24.00;96.60;;;;;;5055107;28;20211;-76
2022/11/03 06:40:51;;;;;;;3.05;0.88;;;23.60;97.80;;;;;;5056470;28;20196;-77
2022/11/03 06:43:27;;;;;;;3.40;0.80;;;23.20;99.90;;;;;;5066427;28;20188;-76
2022/11/03 06:46:02;;;;;;;2.90;0.98;;;23.00;99.90;;;;;;5064350;28;20223;-76
2022/11/03 06:48:36;;;;;;;3.97;1.27;;;22.80;99.90;;;;;;5070587;28;20220;-76
2022/11/03 06:51:21;;;;;;;3.50;0.95;;;22.70;99.90;;;;;;5065256;28;20283;-76
2022/11/03 06:53:53;;;;;;;6.07;0.98;;;22.40;99.90;;;;;;5069890;28;20244;-76
2022/11/03 06:56:26;;;;;;;7.65;1.25;;;22.20;99.90;;;;;;5070402;28;20208;-76
2022/11/03 06:58:59;;;;;;;5.55;1.10;;;22.00;99.90;;;;;;5070138;28;20192;-75
2022/11/03 07:01:33;;;;;;;6.05;1.13;;;22.00;99.90;;;;;;5070450;28;20204;-76
2022/11/03 07:04:07;;;;;;;5.18;1.23;;;21.90;99.90;;;;;;5069628;28;20576;-76
2022/11/03 07:06:40;;;;;;;5.07;1.00;;;21.70;99.90;;;;;;5065285;28;20222;-76
2022/11/03 07:09:18;;;;;;;7.03;1.13;;;21.60;99.90;;;;;;5055306;28;20228;-75
2022/11/03 07:11:52;;;;;;;7.63;1.30;;;21.40;99.90;;;;;;5056869;28;20229;-76
2022/11/03 07:14:25;;;;;;;5.13;1.25;;;21.20;99.90;;;;;;5062059;28;20213;-77
2022/11/03 07:16:58;;;;;;;3.13;1.27;;;21.10;99.90;;;;;;5064876;28;20240;-76
2022/11/03 07:19:31;;;;;;;5.22;1.30;;;20.90;99.90;;;;;;5066501;28;20199;-76
2022/11/03 07:22:07;;;;;;;3.50;1.35;;;20.80;99.90;;;;;;5059633;28;20207;-75
2022/11/03 07:24:41;;;;;;;5.68;2.13;;;20.60;99.90;;;;;;5069067;28;20282;-76
2022/11/03 07:27:22;;;;;;;2.65;1.35;;;20.60;99.90;;;;;;5069810;28;20191;-76
2022/11/03 07:29:55;;;;;;;5.63;1.40;;;20.60;99.90;;;;;;5058683;28;20220;-77
2022/11/03 07:32:31;;;;;;;7.57;1.63;;;20.70;99.90;;;;;;5058133;28;20212;-76
2022/11/03 07:35:11;;;;;;;4.60;1.30;;;20.60;99.90;;;;;;5058567;28;20207;-76
2022/11/03 07:37:44;;;;;;;6.22;1.60;;;20.60;99.90;;;;;;5063345;28;20212;-75
2022/11/03 07:40:21;;;;;;;5.18;1.30;;;20.50;99.90;;;;;;5062477;28;20282;-76
2022/11/03 07:42:53;;;;;;;6.50;1.50;;;20.40;99.90;;;;;;5067033;28;20218;-76
2022/11/03 07:45:40;;;;;;;4.25;1.20;;;20.50;99.90;;;;;;5054833;28;20552;-76
2022/11/03 07:48:32;;;;;;;4.90;1.50;;;20.40;99.90;;;;;;5050277;28;20204;-76
2022/11/03 07:51:09;;;;;;;5.50;1.50;;;20.40;99.90;;;;;;5050123;28;20196;-75
2022/11/03 07:53:45;;;;;;;3.60;1.30;;;20.30;99.90;;;;;;5058697;28;20211;-76
2022/11/03 07:56:22;;;;;;;3.95;1.13;;;20.20;99.90;;;;;;5060844;28;20226;-77
2022/11/03 07:58:57;;;;;;;4.10;1.25;;;20.20;99.90;;;;;;5053856;28;20192;-75
2022/11/03 08:01:33;;;;;;;7.40;1.70;;;20.10;99.90;;;;;;5069582;28;20199;-77
2022/11/03 08:04:08;;;;;;;5.90;1.50;;;20.00;99.90;;;;;;5064346;28;20222;-75
2022/11/03 08:06:39;;;;;;;8.00;1.80;;;20.00;99.90;;;;;;5061685;28;20207;-75
2022/11/03 08:09:14;;;;;;;3.90;1.50;;;19.90;99.90;;;;;;5054297;28;20229;-77
2022/11/03 08:11:47;;;;;;;6.20;1.50;;;19.90;99.90;;;;;;5064390;28;20271;-76
2022/11/03 08:14:21;;;;;;;6.03;1.88;;;19.80;99.90;;;;;;5063492;28;20197;-75
2022/11/03 08:16:53;;;;;;;8.02;1.75;;;19.70;99.90;;;;;;5060477;28;20303;-75
2022/11/03 08:19:24;;;;;;;6.75;1.83;;;19.70;99.90;;;;;;5050006;28;20307;-76
2022/11/03 08:21:57;;;;;;;8.25;2.00;;;19.70;99.90;;;;;;5050187;28;20200;-76
2022/11/03 08:24:34;;;;;;;5.88;1.92;;;19.60;99.90;;;;;;5059302;28;20208;-76
2022/11/03 08:27:11;;;;;;;6.53;1.83;;;19.60;99.90;;;;;;5060173;28;20230;-76
2022/11/03 08:29:44;;;;;;;4.93;1.58;;;19.60;99.90;;;;;;5072466;28;20231;-76
2022/11/03 08:32:17;;;;;;;6.15;1.73;;;19.50;99.90;;;;;;5061358;28;20197;-76
2022/11/03 08:34:48;;;;;;;5.05;1.48;;;19.50;99.90;;;;;;5068482;28;20581;-77
2022/11/03 08:37:20;;;;;;;8.52;1.90;;;19.50;99.90;;;;;;5072710;28;20659;-76
2022/11/03 08:39:53;;;;;;;4.38;1.33;;;19.50;99.90;;;;;;5073305;28;20202;-76
2022/11/03 08:42:30;;;;;;;5.10;1.65;;;19.50;99.90;;;;;;5071945;28;20204;-76
2022/11/03 08:45:01;;;;;;;13.95;2.05;;;19.50;99.90;;;;;;5066010;28;20192;-75
2022/11/03 08:47:33;;;;;;;5.97;1.70;;;19.50;99.90;;;;;;5053492;28;20193;-76
2022/11/03 08:50:08;;;;;;;7.65;1.40;;;19.40;99.90;;;;;;5057619;28;20240;-76
2022/11/03 08:52:40;;;;;;;6.00;1.95;;;19.40;99.90;;;;;;5072807;28;20200;-75
2022/11/03 08:55:14;;;;;;;7.28;1.85;;;19.30;99.90;;;;;;5072843;28;20196;-75
2022/11/03 08:57:44;;;;;;;10.63;2.13;;;19.30;99.90;;;;;;5072331;28;20200;-75
2022/11/03 09:00:17;;;;;;;6.75;1.73;;;19.30;99.90;;;;;;5072936;28;20246;-76
2022/11/03 09:02:49;;;;;;;4.40;1.38;;;19.30;99.90;;;;;;5072352;28;20246;-75
2022/11/03 09:05:19;;;;;;;7.20;1.98;;;19.30;99.90;;;;;;5073153;28;20200;-75
2022/11/03 09:07:50;;;;;;;5.38;1.80;;;19.30;99.90;;;;;;5058125;28;20220;-77
2022/11/03 09:10:26;;;;;;;7.53;1.90;;;19.30;99.90;;;;;;5055850;28;20228;-78
2022/11/03 09:13:00;;;;;;;5.70;1.67;;;19.20;99.90;;;;;;5067089;28;20260;-76
2022/11/03 09:15:35;;;;;;;5.35;2.00;;;19.30;99.90;;;;;;5075294;28;20728;-78
2022/11/03 09:18:10;;;;;;;7.28;1.92;;;19.30;99.90;;;;;;5080992;28;20211;-77
2022/11/03 09:20:42;;;;;;;8.60;2.13;;;19.30;99.90;;;;;;5060679;28;20228;-76
2022/11/03 09:23:13;;;;;;;6.07;1.65;;;19.20;99.90;;;;;;5062559;28;20181;-77
2022/11/03 09:25:52;;;;;;;7.10;2.25;;;19.20;99.90;;;;;;5081483;28;20638;-77
2022/11/03 09:28:23;;;;;;;6.07;1.70;;;19.30;99.90;;;;;;5064801;28;20196;-77
2022/11/03 09:31:22;;;;;;;6.72;1.60;;;19.30;99.90;;;;;;5066798;28;20590;-77
2022/11/03 09:33:56;;;;;;;7.82;1.65;;;19.30;99.90;;;;;;5066530;28;20196;-76
2022/11/03 09:36:28;;;;;;;6.70;1.70;;;19.20;99.90;;;;;;5075901;28;20200;-79
2022/11/03 09:39:12;;;;;;;4.30;1.50;;;19.20;99.90;;;;;;5064127;28;20252;-76
2022/11/03 09:41:51;;;;;;;5.80;1.60;;;19.10;99.90;;;;;;5062596;28;20572;-78
2022/11/03 09:44:23;;;;;;;7.15;1.70;;;19.10;99.90;;;;;;5070652;28;20220;-78
2022/11/03 09:47:04;;;;;;;6.88;2.17;;;19.10;99.90;;;;;;5057001;28;20288;-78
2022/11/03 09:49:37;;;;;;;3.67;1.52;;;19.00;99.90;;;;;;5071215;28;20215;-78
2022/11/03 09:52:08;;;;;;;6.78;1.60;;;18.90;99.90;;;;;;5069784;28;20204;-76
2022/11/03 09:54:39;;;;;;;9.50;1.67;;;18.90;99.90;;;;;;5071310;28;20562;-76
2022/11/03 09:57:18;;;;;;;7.20;1.40;;;18.80;99.90;;;;;;5067953;28;20201;-77
2022/11/03 09:59:52;;;;;;;5.25;1.63;;;18.80;99.90;;;;;;5069386;28;20192;-76
2022/11/03 10:02:29;;;;;;;5.57;1.55;;;18.70;99.90;;;;;;5057224;28;20872;-76
2022/11/03 10:05:03;;;;;;;9.70;2.13;;;18.70;99.90;;;;;;5056890;28;20196;-77
2022/11/03 10:07:34;;;;;;;7.57;1.88;;;18.80;99.90;;;;;;5070600;28;20306;-77
2022/11/03 10:10:06;;;;;;;7.70;1.77;;;18.70;99.90;;;;;;5061194;28;20251;-77
2022/11/03 10:12:40;;;;;;;6.20;1.58;;;18.70;99.90;;;;;;5066094;28;20220;-76
2022/11/03 10:15:17;;;;;;;6.78;1.80;;;18.70;99.90;;;;;;5072924;28;20253;-76
2022/11/03 10:17:49;;;;;;;6.75;1.65;;;18.70;99.90;;;;;;5076801;28;20269;-76
2022/11/03 10:20:22;;;;;;;5.07;1.40;;;18.70;99.90;;;;;;5062386;28;20197;-76
2022/11/03 10:22:55;;;;;;;6.38;1.77;;;18.60;99.90;;;;;;5064439;28;20224;-76
2022/11/03 10:25:37;;;;;;;6.50;1.25;;;18.60;99.90;;;;;;5054829;28;20193;-76
2022/11/03 10:28:23;;;;;;;6.55;1.50;;;18.60;99.90;;;;;;5063227;28;20196;-76
2022/11/03 10:30:59;;;;;;;5.72;1.40;;;18.60;99.90;;;;;;5071377;28;20227;-75
2022/11/03 10:33:35;;;;;;;4.82;1.40;;;18.60;99.90;;;;;;5056861;28;20234;-76
2022/11/03 10:39:27;;;;;;;7.20;1.70;;;18.60;99.90;;;;;;5074935;28;20196;-76
2022/11/03 10:42:02;;;;;;;5.10;1.33;;;18.60;99.90;;;;;;5054846;28;20224;-76
2022/11/03 10:44:34;;;;;;;3.53;1.15;;;18.60;99.90;;;;;;5063984;28;20199;-75
2022/11/03 10:47:06;;;;;;;4.75;1.25;;;18.60;99.90;;;;;;5068669;28;20196;-76
2022/11/03 10:49:38;;;;;;;5.43;1.33;;;18.60;99.90;;;;;;5065088;28;20212;-76
2022/11/03 10:52:21;;;;;;;4.30;1.33;;;18.60;99.90;;;;;;5073280;28;20204;-76
2022/11/03 10:54:53;;;;;;;5.32;1.30;;;18.50;99.90;;;;;;5057983;28;20193;-76
2022/11/03 10:57:25;;;;;;;6.15;1.40;;;18.50;99.90;;;;;;5053926;28;20196;-76
2022/11/03 11:00:02;;;;;;;5.63;1.50;;;18.40;99.90;;;;;;5053387;28;20196;-76
2022/11/03 11:02:35;;;;;;;5.07;1.50;;;18.40;99.90;;;;;;5070194;28;20207;-76
2022/11/03 11:05:15;;;;;;;7.15;1.70;;;18.30;99.90;;;;;;5060602;28;20206;-76
2022/11/03 11:07:46;;;;;;;7.78;1.77;;;18.30;99.90;;;;;;5066068;28;20283;-77
2022/11/03 11:10:21;;;;;;;4.80;1.58;;;18.30;99.90;;;;;;5055531;28;20213;-77
2022/11/03 11:13:28;;;;;;;9.13;1.77;;;18.20;99.90;;;;;;5065763;28;20203;-78
2022/11/03 11:16:02;;;;;;;5.97;1.50;;;18.30;99.90;;;;;;5051985;28;20232;-76
2022/11/03 11:19:11;;;;;;;3.33;1.35;;;18.30;99.90;;;;;;5050960;28;20200;-76
2022/11/03 11:22:14;;;;;;;9.82;1.67;;;18.30;99.90;;;;;;5063909;28;20203;-77
2022/11/03 11:25:04;;;;;;;4.80;1.20;;;18.30;99.90;;;;;;5058420;28;20220;-76
2022/11/03 11:27:59;;;;;;;4.63;1.27;;;18.20;99.90;;;;;;5070973;28;20346;-77
2022/11/03 11:31:08;;;;;;;5.85;1.40;;;18.30;99.90;;;;;;5061105;28;20705;-77
2022/11/03 11:33:44;;;;;;;6.13;1.60;;;18.30;99.90;;;;;;5063481;28;20597;-77
2022/11/03 11:36:26;;;;;;;5.22;1.63;;;18.30;99.90;;;;;;5059935;28;20196;-76
2022/11/03 11:39:07;;;;;;;5.85;1.25;;;18.20;99.90;;;;;;5053599;28;20192;-75
2022/11/03 11:42:16;;;;;;;7.15;1.45;;;18.30;99.90;;;;;;5069311;28;20739;-76
2022/11/03 11:45:06;;;;;;;7.68;1.30;;;18.30;99.90;;;;;;5067442;28;20242;-78
2022/11/03 11:47:52;;;;;;;6.63;1.33;;;18.40;99.90;;;;;;5065387;28;20192;-77
2022/11/03 11:50:34;;;;;;;4.80;1.40;;;18.30;99.90;;;;;;5057416;28;20228;-75
2022/11/03 11:53:24;;;;;;;4.15;1.45;;;18.30;99.90;;;;;;5054303;28;20225;-76
2022/11/03 11:55:57;;;;;;;7.18;1.60;;;18.30;99.90;;;;;;5048589;28;20201;-76
2022/11/03 11:58:44;;;;;;;5.03;1.40;;;18.40;99.90;;;;;;5061275;28;20196;-76
2022/11/03 12:01:27;;;;;;;6.05;1.90;;;18.40;99.90;;;;;;5070449;28;20197;-76
2022/11/03 12:03:59;;;;;;;5.50;1.38;;;18.40;99.90;;;;;;5059026;28;20219;-77
2022/11/03 12:06:52;;;;;;;3.20;1.00;;;18.40;99.90;;;;;;5057220;28;20193;-77
2022/11/03 12:09:25;;;;;;;6.50;1.67;;;18.40;99.90;;;;;;5053727;28;20283;-78
2022/11/03 12:11:58;;;;;;;7.30;1.80;;;18.40;99.90;;;;;;5057624;28;20197;-76
2022/11/03 12:14:34;;;;;;;5.57;1.55;;;18.40;99.90;;;;;;5058903;28;20208;-77
2022/11/03 12:17:35;;;;;;;4.82;1.20;;;18.30;99.90;;;;;;5056921;28;20228;-78
2022/11/03 12:20:38;;;;;;;5.60;1.33;;;18.30;99.90;;;;;;5057995;28;20585;-77
2022/11/03 12:23:11;;;;;;;5.55;1.17;;;18.30;99.90;;;;;;5075545;28;20191;-77
2022/11/03 12:25:42;;;;;;;5.75;1.50;;;18.20;99.90;;;;;;5076737;28;20202;-77
2022/11/03 12:28:31;;;;;;;7.10;1.50;;;18.20;99.90;;;;;;5077048;28;20953;-77
2022/11/03 12:31:03;;;;;;;5.97;1.05;;;18.20;99.90;;;;;;5072599;28;20289;-77
2022/11/03 12:33:34;;;;;;;5.97;1.33;;;18.20;99.90;;;;;;5056984;28;20197;-77
2022/11/03 12:36:05;;;;;;;5.38;1.17;;;18.20;99.90;;;;;;5057733;28;20223;-76
2022/11/03 12:38:37;;;;;;;4.13;1.20;;;18.10;99.90;;;;;;5064087;28;20196;-77
2022/11/03 12:41:24;;;;;;;5.20;1.20;;;18.10;99.90;;;;;;5074413;28;20222;-77
2022/11/03 12:43:55;;;;;;;7.22;1.40;;;18.00;99.90;;;;;;5073481;28;20203;-76
2022/11/03 12:46:27;;;;;;;5.40;1.30;;;18.00;99.90;;;;;;5070554;28;20204;-77
2022/11/03 12:48:58;;;;;;;6.18;1.40;;;18.00;99.90;;;;;;5060923;28;20217;-77
2022/11/03 12:51:29;;;;;;;5.65;1.20;;;18.00;99.90;;;;;;5063414;28;20224;-77
2022/11/03 12:54:02;;;;;;;5.93;1.45;;;18.00;99.90;;;;;;5069759;28;20230;-78
2022/11/03 12:56:33;;;;;;;5.65;1.45;;;18.00;99.90;;;;;;5069968;28;20291;-77
2022/11/03 12:59:04;;;;;;;3.53;1.13;;;18.00;99.90;;;;;;5066058;28;20195;-77
2022/11/03 13:01:35;;;;;;;3.47;1.20;;;18.00;99.90;;;;;;5072802;28;20246;-77
2022/11/03 13:04:06;;;;;;;5.65;1.20;;;18.10;99.90;;;;;;5066294;28;20199;-77
2022/11/03 13:06:38;;;;;;;7.18;1.50;;;18.10;99.90;;;;;;5060109;28;20200;-77
2022/11/03 13:09:12;;;;;;;4.60;1.27;;;18.10;99.90;;;;;;5060273;28;20196;-77
2022/11/03 13:14:29;;;;;;;5.45;1.63;;;18.20;99.90;;;;;;5074551;28;20218;-77
2022/11/03 13:17:02;;;;;;;6.90;1.38;;;18.20;99.90;;;;;;5075636;28;20200;-77
2022/11/03 13:19:33;;;;;;;9.02;1.70;;;18.10;99.90;;;;;;5073426;28;20250;-77
2022/11/03 13:22:04;;;;;;;6.35;1.20;;;18.10;99.90;;;;;;5066369;28;20687;-77
2022/11/03 13:24:36;;;;;;;7.03;2.08;;;18.10;99.90;;;;;;5054729;28;20652;-77
2022/11/03 13:27:08;;;;;;;7.30;1.50;;;18.10;99.90;;;;;;5054846;28;20196;-77
2022/11/03 13:29:38;;;;;;;5.97;1.42;;;18.00;99.90;;;;;;5065175;28;20199;-77
2022/11/03 13:32:09;;;;;;;6.60;1.77;;;18.10;99.90;;;;;;5054588;28;20219;-77
2022/11/03 13:34:40;;;;;;;6.28;1.50;;;18.00;99.90;;;;;;5057115;28;20192;-77
2022/11/03 13:37:11;;;;;;;8.05;1.77;;;18.00;99.90;;;;;;5072201;28;20206;-77
2022/11/03 13:39:44;;;;;;;7.45;1.33;;;18.00;99.90;;;;;;5060519;28;20275;-78
2022/11/03 13:42:15;;;;;;;9.20;1.65;;;18.00;99.90;;;;;;5066816;28;20200;-77
2022/11/03 13:44:45;;;;;;;6.97;1.60;;;18.00;99.90;;;;;;5055609;28;20200;-77
2022/11/03 13:47:16;;;;;;;6.97;1.48;;;18.00;99.90;;;;;;5066694;28;20219;-77
2022/11/03 13:49:47;;;;;;;8.52;1.60;;;17.90;99.90;;;;;;5063173;28;20721;-76